Time;durP1;ratioP1;P1;durP2;ratioP2;P2;SDS_P1;SDS_P2;PMS_P1;PMS_P2;Temp;Humidity;BMP_temperature;BMP_pressure;BME280_temperature;BME280_humidity;BME280_pressure;Samples;Min_cycle;Max_cycle;Signal;HPM_P1;HPM_P2
2021/10/23 00:00:47;;;;;;;25.67;10.18;;;6.30;95.00;;;;;;5014557;28;20413;-74
2021/10/23 00:03:13;;;;;;;23.35;9.95;;;6.40;95.20;;;;;;5031290;28;20014;-73
2021/10/23 00:05:38;;;;;;;21.85;9.38;;;6.40;95.20;;;;;;5014190;28;20028;-73
2021/10/23 00:08:04;;;;;;;23.00;9.38;;;6.50;95.30;;;;;;5032076;28;20029;-74
2021/10/23 00:10:30;;;;;;;20.60;10.23;;;6.50;95.30;;;;;;5031881;28;20037;-73
2021/10/23 00:12:56;;;;;;;19.80;9.23;;;6.50;95.30;;;;;;5014313;28;20372;-73
2021/10/23 00:15:21;;;;;;;24.38;9.70;;;6.50;95.40;;;;;;5015866;28;20017;-74
2021/10/23 00:17:47;;;;;;;27.65;11.40;;;6.60;95.50;;;;;;5014443;28;20028;-73
2021/10/23 00:20:13;;;;;;;29.33;10.25;;;6.60;95.50;;;;;;5032773;28;20112;-73
2021/10/23 00:22:39;;;;;;;21.52;9.30;;;6.70;95.60;;;;;;5031499;28;20363;-73
2021/10/23 00:25:05;;;;;;;24.92;10.13;;;6.70;95.60;;;;;;5014077;28;20504;-72
2021/10/23 00:27:31;;;;;;;29.35;10.45;;;6.70;95.60;;;;;;5032212;28;20029;-74
2021/10/23 00:29:58;;;;;;;22.52;9.75;;;6.70;95.50;;;;;;5035102;28;20386;-72
2021/10/23 00:32:24;;;;;;;22.80;10.10;;;6.80;95.60;;;;;;5034771;28;20363;-72
2021/10/23 00:34:50;;;;;;;27.00;10.07;;;6.80;95.60;;;;;;5035270;28;20026;-73
2021/10/23 00:37:15;;;;;;;23.20;10.05;;;6.80;95.70;;;;;;5035322;28;20037;-73
2021/10/23 00:39:41;;;;;;;23.80;10.02;;;6.90;95.80;;;;;;5035113;28;20116;-72
2021/10/23 00:42:06;;;;;;;23.13;8.85;;;6.90;95.80;;;;;;5034971;28;20466;-72
2021/10/23 00:44:37;;;;;;;24.33;9.70;;;7.00;95.80;;;;;;5036091;28;20018;-72
2021/10/23 00:47:07;;;;;;;24.95;10.02;;;7.00;95.80;;;;;;5037630;28;20022;-72
2021/10/23 00:49:34;;;;;;;20.05;9.48;;;6.90;95.70;;;;;;5036654;28;20037;-72
2021/10/23 00:52:01;;;;;;;26.35;9.70;;;7.00;95.80;;;;;;5035321;28;20030;-72
2021/10/23 00:54:27;;;;;;;28.85;9.02;;;7.00;95.80;;;;;;5016912;28;20030;-73
2021/10/23 00:56:54;;;;;;;25.30;8.88;;;7.00;95.70;;;;;;5017241;28;20017;-73
2021/10/23 00:59:20;;;;;;;21.42;8.38;;;7.00;95.70;;;;;;5034780;28;20542;-73
2021/10/23 01:01:47;;;;;;;27.95;10.13;;;7.00;95.80;;;;;;5034800;28;20409;-74
2021/10/23 01:04:13;;;;;;;24.45;9.88;;;6.90;95.70;;;;;;5016815;28;20374;-74
2021/10/23 01:06:39;;;;;;;20.23;8.77;;;7.00;95.60;;;;;;5034832;28;20029;-74
2021/10/23 01:09:06;;;;;;;24.08;10.35;;;7.00;95.60;;;;;;5034671;28;20118;-74
2021/10/23 01:11:31;;;;;;;20.67;9.18;;;6.90;95.60;;;;;;5034321;28;20037;-73
2021/10/23 01:13:57;;;;;;;24.10;10.02;;;7.00;95.60;;;;;;5034298;28;20025;-73
2021/10/23 01:16:23;;;;;;;24.10;8.70;;;6.90;95.60;;;;;;5034576;28;20101;-73
2021/10/23 01:18:50;;;;;;;23.92;9.68;;;6.90;95.50;;;;;;5034525;28;20116;-73
2021/10/23 01:21:23;;;;;;;23.95;9.80;;;6.80;95.30;;;;;;5034157;28;20520;-73
2021/10/23 01:23:49;;;;;;;22.60;8.98;;;6.90;95.30;;;;;;5034239;28;20420;-74
2021/10/23 01:26:21;;;;;;;26.23;9.15;;;6.80;95.20;;;;;;5033985;28;20053;-73
2021/10/23 01:28:46;;;;;;;19.90;8.05;;;6.80;95.10;;;;;;5034373;28;20414;-73
2021/10/23 01:31:12;;;;;;;23.95;8.18;;;6.70;95.00;;;;;;5034165;28;20026;-74
2021/10/23 01:33:37;;;;;;;20.50;8.73;;;6.70;95.00;;;;;;5034503;28;20026;-73
2021/10/23 01:36:22;;;;;;;20.65;8.25;;;6.60;94.90;;;;;;5034895;28;20025;-74
2021/10/23 01:38:48;;;;;;;19.95;9.52;;;6.60;94.90;;;;;;5035110;28;20390;-73
2021/10/23 01:41:14;;;;;;;21.17;9.60;;;6.50;94.90;;;;;;5036083;28;20029;-73
2021/10/23 01:43:40;;;;;;;18.52;8.02;;;6.50;95.00;;;;;;5035812;28;20032;-73
2021/10/23 01:46:07;;;;;;;22.02;9.32;;;6.50;95.10;;;;;;5034254;28;20025;-74
2021/10/23 01:48:37;;;;;;;25.63;9.07;;;6.50;95.10;;;;;;5034265;28;20141;-73
2021/10/23 01:51:04;;;;;;;25.52;9.75;;;6.40;95.10;;;;;;5033675;28;20026;-72
2021/10/23 01:53:33;;;;;;;19.70;9.32;;;6.40;95.10;;;;;;5033372;28;20037;-72
2021/10/23 01:56:03;;;;;;;20.63;9.23;;;6.40;95.10;;;;;;5033767;28;20025;-73
2021/10/23 01:58:29;;;;;;;22.50;8.85;;;6.30;95.10;;;;;;5033554;28;20049;-74
2021/10/23 02:00:55;;;;;;;20.27;8.75;;;6.30;95.20;;;;;;5033645;28;20026;-72
2021/10/23 02:03:21;;;;;;;23.45;10.15;;;6.30;95.20;;;;;;5033441;28;20029;-72
2021/10/23 02:05:46;;;;;;;24.05;9.20;;;6.20;95.10;;;;;;5015890;28;20033;-73
2021/10/23 02:08:12;;;;;;;20.05;9.40;;;6.30;95.30;;;;;;5033817;28;20079;-74
2021/10/23 02:10:38;;;;;;;29.73;9.90;;;6.20;95.30;;;;;;5034427;28;20026;-73
2021/10/23 02:13:03;;;;;;;23.75;11.23;;;6.30;95.30;;;;;;5034037;28;20029;-73
2021/10/23 02:15:29;;;;;;;15.18;8.23;;;6.30;95.40;;;;;;5033763;28;20032;-73
2021/10/23 02:17:55;;;;;;;14.85;7.75;;;6.20;95.40;;;;;;5033513;28;20025;-74
2021/10/23 02:20:20;;;;;;;24.88;10.93;;;6.20;95.40;;;;;;5015190;28;20041;-74
2021/10/23 02:22:46;;;;;;;23.27;8.40;;;6.20;95.40;;;;;;5033047;28;20414;-74
2021/10/23 02:25:12;;;;;;;25.17;11.02;;;6.20;95.40;;;;;;5033180;28;20026;-74
2021/10/23 02:27:39;;;;;;;30.88;11.32;;;6.20;95.40;;;;;;5032638;28;20036;-74
2021/10/23 02:30:07;;;;;;;28.52;11.60;;;6.10;95.50;;;;;;5015320;28;20497;-74
2021/10/23 02:32:33;;;;;;;25.35;9.30;;;6.20;95.60;;;;;;5015006;28;20473;-73
2021/10/23 02:34:59;;;;;;;26.98;11.32;;;6.20;95.60;;;;;;5033051;28;20072;-73
2021/10/23 02:37:25;;;;;;;22.38;9.52;;;6.20;95.70;;;;;;5032862;28;20103;-73
2021/10/23 02:39:51;;;;;;;22.80;9.43;;;6.20;95.60;;;;;;5032926;28;20044;-72
2021/10/23 02:42:17;;;;;;;26.17;11.25;;;6.20;95.60;;;;;;5033000;28;20026;-73
2021/10/23 02:44:43;;;;;;;24.80;10.65;;;6.20;95.70;;;;;;5014944;28;20022;-73
2021/10/23 02:47:09;;;;;;;26.50;11.73;;;6.20;95.70;;;;;;5032920;28;20490;-73
2021/10/23 02:49:35;;;;;;;29.45;10.50;;;6.20;96.00;;;;;;5032590;28;20484;-72
2021/10/23 02:52:00;;;;;;;25.00;11.27;;;6.20;95.80;;;;;;5032807;28;20057;-73
2021/10/23 02:54:26;;;;;;;22.88;11.02;;;6.30;95.90;;;;;;5024566;28;20104;-73
2021/10/23 02:56:52;;;;;;;21.58;11.18;;;6.30;95.90;;;;;;5032609;28;20067;-73
2021/10/23 02:59:17;;;;;;;27.33;10.75;;;6.30;95.80;;;;;;5032288;28;20498;-73
2021/10/23 03:01:43;;;;;;;25.23;11.13;;;6.30;95.80;;;;;;5032057;28;20104;-74
2021/10/23 03:04:09;;;;;;;24.67;9.60;;;6.30;95.80;;;;;;5032642;28;20022;-74
2021/10/23 03:06:34;;;;;;;16.00;8.27;;;6.40;95.80;;;;;;5032590;28;20057;-74
2021/10/23 03:09:00;;;;;;;23.33;9.93;;;6.30;95.70;;;;;;5032673;28;20033;-73
2021/10/23 03:11:26;;;;;;;18.63;8.60;;;6.40;95.60;;;;;;5032280;28;20021;-74
2021/10/23 03:13:51;;;;;;;20.58;9.55;;;6.30;95.50;;;;;;5032521;28;20382;-73
2021/10/23 03:16:17;;;;;;;19.88;9.48;;;6.30;95.50;;;;;;5032366;28;20021;-73
2021/10/23 03:18:43;;;;;;;18.38;9.10;;;6.30;95.40;;;;;;5032138;28;20466;-73
2021/10/23 03:21:08;;;;;;;22.27;9.57;;;6.30;95.40;;;;;;5032115;28;20073;-73
2021/10/23 03:23:34;;;;;;;25.15;9.48;;;6.30;95.30;;;;;;5014539;28;20013;-73
2021/10/23 03:26:00;;;;;;;18.60;9.13;;;6.30;95.30;;;;;;5032605;28;20040;-73
2021/10/23 03:28:26;;;;;;;21.25;10.23;;;6.30;95.40;;;;;;5032204;28;20021;-73
2021/10/23 03:30:51;;;;;;;25.50;10.00;;;6.20;95.40;;;;;;5033057;28;20509;-72
2021/10/23 03:33:17;;;;;;;25.58;11.63;;;6.30;95.50;;;;;;5033909;28;20032;-72
2021/10/23 03:35:43;;;;;;;23.23;10.73;;;6.30;95.60;;;;;;5033522;28;20443;-72
2021/10/23 03:38:09;;;;;;;18.83;10.38;;;6.30;95.70;;;;;;5032218;28;20045;-73
2021/10/23 03:40:35;;;;;;;24.42;10.73;;;6.30;95.70;;;;;;5031861;28;20070;-73
2021/10/23 03:43:00;;;;;;;21.42;11.50;;;6.30;95.70;;;;;;5032078;28;20021;-74
2021/10/23 03:45:26;;;;;;;25.00;10.50;;;6.30;95.70;;;;;;5013692;28;20026;-73
2021/10/23 03:47:52;;;;;;;28.88;11.05;;;6.40;95.80;;;;;;5032060;28;20076;-74
2021/10/23 03:50:17;;;;;;;22.27;10.85;;;6.30;95.70;;;;;;5031902;28;20033;-73
2021/10/23 03:52:43;;;;;;;22.17;10.60;;;6.30;95.70;;;;;;5031613;28;20033;-73
2021/10/23 03:55:10;;;;;;;23.42;11.68;;;6.30;95.60;;;;;;5014184;28;20150;-74
2021/10/23 03:57:36;;;;;;;25.63;12.20;;;6.30;95.60;;;;;;5031255;28;20422;-74
2021/10/23 04:00:04;;;;;;;20.40;10.52;;;6.20;95.50;;;;;;5031938;28;20076;-74
2021/10/23 04:02:30;;;;;;;21.10;10.48;;;6.20;95.50;;;;;;5032342;28;20022;-74
2021/10/23 04:04:56;;;;;;;25.65;10.98;;;6.20;95.50;;;;;;5036437;28;20025;-73
2021/10/23 04:07:22;;;;;;;20.20;10.13;;;6.20;95.50;;;;;;5035719;28;20071;-73
2021/10/23 04:09:47;;;;;;;26.55;11.38;;;6.10;95.40;;;;;;5036111;28;20030;-73
2021/10/23 04:12:13;;;;;;;25.58;11.90;;;6.10;95.40;;;;;;5035537;28;20087;-73
2021/10/23 04:14:38;;;;;;;22.50;11.68;;;6.10;95.40;;;;;;5011950;28;20475;-73
2021/10/23 04:17:04;;;;;;;23.98;12.50;;;6.10;95.50;;;;;;5036679;28;20343;-74
2021/10/23 04:19:30;;;;;;;22.58;12.32;;;6.10;95.60;;;;;;5035383;28;20064;-74
2021/10/23 04:21:56;;;;;;;21.02;12.02;;;6.00;95.50;;;;;;5035561;28;20378;-73
2021/10/23 04:24:21;;;;;;;23.15;12.57;;;6.10;95.60;;;;;;5035880;28;20017;-73
2021/10/23 04:26:49;;;;;;;24.85;12.25;;;6.00;95.50;;;;;;5035310;28;20578;-73
2021/10/23 04:29:14;;;;;;;21.55;11.45;;;6.00;95.50;;;;;;5035825;28;20120;-74
2021/10/23 04:31:40;;;;;;;24.52;11.52;;;6.00;95.50;;;;;;5035520;28;20108;-74
2021/10/23 04:34:06;;;;;;;19.48;11.88;;;5.90;95.40;;;;;;5035496;28;20017;-73
2021/10/23 04:36:31;;;;;;;29.95;13.35;;;6.00;95.50;;;;;;5035094;28;20048;-73
2021/10/23 04:38:57;;;;;;;36.08;17.15;;;5.90;95.80;;;;;;5017304;28;20033;-73
2021/10/23 04:41:22;;;;;;;23.77;12.52;;;6.00;95.90;;;;;;5035278;28;20026;-73
2021/10/23 04:43:48;;;;;;;27.88;15.48;;;6.00;96.00;;;;;;5034985;28;20100;-73
2021/10/23 04:46:13;;;;;;;30.27;16.88;;;6.00;96.10;;;;;;5035144;28;20107;-73
2021/10/23 04:48:39;;;;;;;22.92;13.55;;;6.00;96.10;;;;;;5034850;28;20033;-73
2021/10/23 04:51:05;;;;;;;33.65;15.35;;;6.00;96.20;;;;;;5035247;28;20021;-73
2021/10/23 04:53:30;;;;;;;29.73;15.35;;;6.00;96.30;;;;;;5035026;28;20036;-73
2021/10/23 04:55:56;;;;;;;26.98;15.95;;;6.00;96.20;;;;;;5034954;28;20057;-73
2021/10/23 04:58:21;;;;;;;28.45;14.85;;;6.00;96.20;;;;;;5034487;28;20478;-74
2021/10/23 05:00:47;;;;;;;35.53;18.40;;;6.00;96.20;;;;;;5034608;28;20037;-73
2021/10/23 05:03:13;;;;;;;34.42;16.17;;;6.00;96.10;;;;;;5034849;28;20450;-73
2021/10/23 05:05:38;;;;;;;29.95;16.02;;;5.90;96.10;;;;;;5034635;28;20076;-73
2021/10/23 05:08:04;;;;;;;25.27;15.52;;;5.90;96.20;;;;;;5034784;28;20045;-73
2021/10/23 05:10:30;;;;;;;29.38;15.52;;;5.90;96.10;;;;;;5034446;28;20102;-72
2021/10/23 05:12:55;;;;;;;30.80;14.93;;;5.90;96.10;;;;;;5034772;28;20528;-73
2021/10/23 05:15:21;;;;;;;28.95;17.52;;;5.90;96.10;;;;;;5033936;28;20056;-73
2021/10/23 05:17:47;;;;;;;29.35;14.60;;;5.90;96.20;;;;;;5035103;28;20021;-73
2021/10/23 05:20:12;;;;;;;28.80;15.23;;;5.90;96.20;;;;;;5035308;28;20037;-73
2021/10/23 05:22:38;;;;;;;22.92;14.27;;;5.90;96.10;;;;;;5034847;28;20108;-73
2021/10/23 05:25:04;;;;;;;32.05;14.52;;;5.90;96.10;;;;;;5017549;28;20109;-73
2021/10/23 05:27:30;;;;;;;26.30;14.88;;;5.80;95.90;;;;;;5017420;28;20202;-73
2021/10/23 05:29:57;;;;;;;23.98;14.18;;;5.80;95.80;;;;;;5035576;28;20033;-74
2021/10/23 05:32:22;;;;;;;34.13;15.00;;;5.80;95.80;;;;;;5035347;28;20033;-74
2021/10/23 05:34:48;;;;;;;23.08;12.90;;;5.80;95.70;;;;;;5034774;28;20026;-72
2021/10/23 05:37:15;;;;;;;24.05;13.18;;;5.80;95.70;;;;;;5034217;28;20112;-74
2021/10/23 05:39:41;;;;;;;21.77;13.80;;;5.80;95.70;;;;;;5033647;28;20166;-74
2021/10/23 05:42:06;;;;;;;20.00;12.95;;;5.70;95.60;;;;;;5033838;28;20586;-74
2021/10/23 05:44:32;;;;;;;29.77;15.63;;;5.70;95.60;;;;;;5016074;28;20108;-73
2021/10/23 05:46:58;;;;;;;26.10;14.80;;;5.60;95.60;;;;;;5034001;28;20025;-73
2021/10/23 05:49:23;;;;;;;25.65;15.07;;;5.60;95.50;;;;;;5016118;28;20052;-73
2021/10/23 05:51:50;;;;;;;19.80;13.63;;;5.60;95.60;;;;;;5015845;28;20017;-73
2021/10/23 05:54:16;;;;;;;22.83;14.27;;;5.60;95.60;;;;;;5033552;28;20271;-73
2021/10/23 05:56:42;;;;;;;26.63;14.77;;;5.60;95.50;;;;;;5033862;28;20273;-74
2021/10/23 05:59:11;;;;;;;20.23;13.55;;;5.60;95.60;;;;;;5034528;28;20041;-74
2021/10/23 06:01:38;;;;;;;23.45;14.75;;;5.60;95.50;;;;;;5015739;28;20458;-73
2021/10/23 06:04:03;;;;;;;30.73;15.07;;;5.60;95.60;;;;;;5034289;28;20077;-73
2021/10/23 06:06:29;;;;;;;24.42;14.38;;;5.60;95.70;;;;;;5033084;28;20029;-74
2021/10/23 06:08:55;;;;;;;27.58;14.40;;;5.60;95.70;;;;;;5037644;28;20034;-73
2021/10/23 06:11:21;;;;;;;21.35;14.00;;;5.60;95.70;;;;;;5041216;28;20470;-73
2021/10/23 06:13:47;;;;;;;28.35;14.13;;;5.60;95.60;;;;;;5041887;28;20021;-74
2021/10/23 06:16:14;;;;;;;27.20;13.40;;;5.50;95.50;;;;;;5025044;28;20021;-74
2021/10/23 06:18:39;;;;;;;23.42;14.55;;;5.50;95.50;;;;;;5040252;28;20386;-72
2021/10/23 06:21:05;;;;;;;25.48;14.23;;;5.50;95.50;;;;;;5040480;28;21466;-72
2021/10/23 06:23:32;;;;;;;27.20;14.63;;;5.50;95.60;;;;;;5041953;28;20029;-74
2021/10/23 06:25:58;;;;;;;26.73;14.93;;;5.50;95.50;;;;;;5043525;28;20036;-73
2021/10/23 06:28:24;;;;;;;26.25;15.63;;;5.60;95.60;;;;;;5037226;28;20112;-73
2021/10/23 06:30:49;;;;;;;30.23;16.20;;;5.50;95.60;;;;;;5033409;28;20237;-73
2021/10/23 06:33:18;;;;;;;25.85;15.68;;;5.60;95.70;;;;;;5033128;28;20018;-72
2021/10/23 06:35:43;;;;;;;31.77;18.52;;;5.60;95.70;;;;;;5014928;28;20018;-74
2021/10/23 06:38:09;;;;;;;31.15;19.23;;;5.60;95.90;;;;;;5032728;28;20025;-74
2021/10/23 06:40:35;;;;;;;28.60;17.50;;;5.70;96.10;;;;;;5032409;28;20044;-74
2021/10/23 06:43:01;;;;;;;29.75;18.15;;;5.70;95.90;;;;;;5032647;28;20076;-73
2021/10/23 06:45:26;;;;;;;33.03;19.45;;;5.70;96.10;;;;;;5032480;28;20420;-73
2021/10/23 06:47:52;;;;;;;35.75;19.58;;;5.80;96.20;;;;;;5032651;28;20112;-73
2021/10/23 06:50:18;;;;;;;38.28;21.83;;;5.80;96.30;;;;;;5032918;28;20036;-74
2021/10/23 06:52:43;;;;;;;136.88;29.10;;;5.90;96.70;;;;;;5032411;28;20033;-74
2021/10/23 06:55:10;;;;;;;99.32;26.35;;;6.00;96.70;;;;;;5033070;28;20036;-73
2021/10/23 06:57:36;;;;;;;165.10;28.35;;;6.10;97.10;;;;;;5032269;28;20044;-74
2021/10/23 07:00:04;;;;;;;172.55;27.35;;;6.20;97.30;;;;;;5032827;28;20033;-74
2021/10/23 07:02:37;;;;;;;188.20;29.63;;;6.30;97.40;;;;;;5033106;28;20017;-73
2021/10/23 07:05:02;;;;;;;184.10;30.13;;;6.40;97.50;;;;;;5014857;28;20032;-73
2021/10/23 07:07:28;;;;;;;350.65;34.28;;;6.40;97.50;;;;;;5032285;28;20017;-74
2021/10/23 07:09:53;;;;;;;281.85;33.63;;;6.50;97.50;;;;;;5014702;28;20083;-72
2021/10/23 07:12:19;;;;;;;173.38;30.05;;;6.60;97.60;;;;;;5032503;28;20017;-73
2021/10/23 07:14:45;;;;;;;205.07;33.10;;;6.60;97.60;;;;;;5015937;28;20481;-74
2021/10/23 07:17:10;;;;;;;200.35;33.10;;;6.70;97.60;;;;;;5034815;28;20100;-73
2021/10/23 07:19:36;;;;;;;179.07;31.83;;;6.70;97.60;;;;;;5034566;28;20057;-73
2021/10/23 07:22:02;;;;;;;212.63;32.17;;;6.80;97.50;;;;;;5014571;28;20017;-74
2021/10/23 07:24:27;;;;;;;167.70;27.92;;;6.80;97.50;;;;;;5032795;28;20029;-73
2021/10/23 07:26:53;;;;;;;172.25;31.30;;;6.80;97.40;;;;;;5032014;28;20028;-73
2021/10/23 07:29:18;;;;;;;184.48;30.90;;;6.80;97.40;;;;;;5032192;28;20030;-74
2021/10/23 07:31:44;;;;;;;169.10;30.55;;;6.90;97.50;;;;;;5014147;28;20025;-74
2021/10/23 07:34:10;;;;;;;151.82;30.80;;;6.90;97.40;;;;;;5032562;28;20033;-74
2021/10/23 07:36:35;;;;;;;136.45;28.27;;;6.90;97.40;;;;;;5014046;28;20069;-73
2021/10/23 07:39:01;;;;;;;76.03;28.35;;;7.00;97.40;;;;;;5013686;28;20101;-74
2021/10/23 07:41:27;;;;;;;159.68;29.50;;;7.00;97.40;;;;;;5031938;28;20025;-73
2021/10/23 07:43:53;;;;;;;84.65;31.17;;;7.10;97.40;;;;;;5031476;28;20029;-73
2021/10/23 07:46:18;;;;;;;86.10;27.00;;;7.10;97.20;;;;;;5032096;28;20058;-73
2021/10/23 07:48:44;;;;;;;67.30;24.05;;;7.10;97.10;;;;;;5031589;28;20034;-73
2021/10/23 07:51:10;;;;;;;59.95;21.88;;;7.20;97.10;;;;;;5031965;28;20068;-73
2021/10/23 07:53:36;;;;;;;55.28;21.77;;;7.20;96.90;;;;;;5033203;28;20280;-74
2021/10/23 07:56:02;;;;;;;48.95;24.30;;;7.30;96.90;;;;;;5032047;28;20346;-73
2021/10/23 07:58:28;;;;;;;53.03;24.95;;;7.40;96.80;;;;;;5033293;28;20434;-73
2021/10/23 08:00:53;;;;;;;42.63;24.83;;;7.40;96.80;;;;;;5013956;28;20053;-74
2021/10/23 08:03:19;;;;;;;36.60;24.63;;;7.50;96.90;;;;;;5014462;28;20022;-73
2021/10/23 08:05:44;;;;;;;49.05;23.90;;;7.60;96.90;;;;;;5013829;28;20534;-73
2021/10/23 08:08:10;;;;;;;47.22;22.90;;;7.70;96.80;;;;;;5031618;28;20478;-74
2021/10/23 08:10:36;;;;;;;30.50;20.67;;;7.80;96.70;;;;;;5014017;28;20025;-74
2021/10/23 08:13:04;;;;;;;33.47;21.80;;;7.90;96.40;;;;;;5013935;28;20057;-74
2021/10/23 08:15:31;;;;;;;35.92;20.75;;;8.00;96.40;;;;;;5031555;28;20187;-74
2021/10/23 08:18:02;;;;;;;30.42;21.83;;;8.00;96.30;;;;;;5031435;28;20386;-73
2021/10/23 08:20:32;;;;;;;28.50;20.70;;;8.10;96.10;;;;;;5031254;28;20050;-73
2021/10/23 08:22:57;;;;;;;39.65;22.45;;;8.20;96.00;;;;;;5032565;28;20032;-73
2021/10/23 08:25:23;;;;;;;38.33;22.23;;;8.20;95.90;;;;;;5032332;28;20018;-75
2021/10/23 08:27:48;;;;;;;32.17;23.58;;;8.30;95.90;;;;;;5031316;28;20101;-74
2021/10/23 08:30:16;;;;;;;46.42;22.38;;;8.30;95.80;;;;;;5013690;28;20022;-73
2021/10/23 08:32:43;;;;;;;35.03;22.27;;;8.40;95.80;;;;;;5031597;28;20076;-75
2021/10/23 08:35:10;;;;;;;33.42;23.25;;;8.40;95.80;;;;;;5031580;28;20109;-74
2021/10/23 08:37:36;;;;;;;31.08;22.95;;;8.50;95.80;;;;;;5031160;28;20176;-73
2021/10/23 08:40:04;;;;;;;31.33;22.80;;;8.50;95.80;;;;;;5013364;28;20044;-74
2021/10/23 08:42:31;;;;;;;30.55;21.77;;;8.60;95.70;;;;;;5031464;28;20674;-74
2021/10/23 08:44:58;;;;;;;33.45;23.90;;;8.60;95.50;;;;;;5013328;28;20429;-74
2021/10/23 08:47:27;;;;;;;29.38;22.85;;;8.60;95.50;;;;;;5031372;28;20028;-74
2021/10/23 08:49:54;;;;;;;31.77;23.45;;;8.70;95.50;;;;;;5033730;28;20033;-74
2021/10/23 08:52:20;;;;;;;31.40;23.80;;;8.70;95.40;;;;;;5034844;28;20079;-74
2021/10/23 08:54:45;;;;;;;34.42;24.52;;;8.70;95.50;;;;;;5034307;28;20029;-73
2021/10/23 08:57:11;;;;;;;32.42;24.83;;;8.70;95.60;;;;;;5016668;28;20075;-74
2021/10/23 08:59:36;;;;;;;34.92;24.52;;;8.70;95.70;;;;;;5034182;28;20060;-74
2021/10/23 09:02:03;;;;;;;29.98;22.90;;;8.80;95.80;;;;;;5035330;28;20022;-74
2021/10/23 09:04:30;;;;;;;33.92;24.15;;;8.80;95.40;;;;;;5035666;28;20073;-73
2021/10/23 09:07:12;;;;;;;33.50;23.52;;;8.80;95.50;;;;;;5036201;28;20049;-72
2021/10/23 09:09:52;;;;;;;33.67;24.67;;;8.90;95.60;;;;;;5036869;28;20096;-73
2021/10/23 09:12:28;;;;;;;30.85;24.23;;;8.90;95.40;;;;;;5034307;28;20378;-74
2021/10/23 09:15:03;;;;;;;34.95;25.33;;;8.90;95.40;;;;;;5016416;28;20026;-74
2021/10/23 09:17:29;;;;;;;34.92;25.23;;;8.90;95.30;;;;;;5016629;28;20131;-74
2021/10/23 09:19:57;;;;;;;31.63;23.65;;;8.90;95.70;;;;;;5034013;28;20454;-75
2021/10/23 09:22:28;;;;;;;39.35;26.08;;;9.00;95.30;;;;;;5033822;28;20017;-74
2021/10/23 09:25:22;;;;;;;36.78;26.38;;;9.00;95.60;;;;;;5033821;28;20447;-74
2021/10/23 09:28:01;;;;;;;33.97;26.42;;;9.00;95.40;;;;;;5033703;28;20025;-73
2021/10/23 09:30:31;;;;;;;38.15;26.40;;;9.10;95.40;;;;;;5034358;28;20037;-73
2021/10/23 09:33:00;;;;;;;35.42;26.65;;;9.10;95.40;;;;;;5034154;28;20366;-73
2021/10/23 09:35:25;;;;;;;38.70;25.85;;;9.20;95.60;;;;;;5033793;28;20458;-74
2021/10/23 09:37:54;;;;;;;35.20;26.83;;;9.30;95.70;;;;;;5033725;28;20060;-74
2021/10/23 09:40:21;;;;;;;38.88;29.33;;;9.40;95.60;;;;;;5034005;28;20463;-74
2021/10/23 09:43:02;;;;;;;39.92;28.13;;;9.50;95.60;;;;;;5034042;28;20029;-74
2021/10/23 09:45:28;;;;;;;32.13;26.77;;;9.60;95.70;;;;;;5033676;28;20417;-74
2021/10/23 09:48:08;;;;;;;31.48;23.75;;;9.70;95.60;;;;;;5034393;28;20065;-75
2021/10/23 09:50:34;;;;;;;34.50;24.10;;;9.80;95.40;;;;;;5034164;28;20033;-74
2021/10/23 09:53:08;;;;;;;32.13;23.70;;;9.90;95.30;;;;;;5034713;28;20022;-74
2021/10/23 09:55:52;;;;;;;31.05;25.13;;;9.90;95.20;;;;;;5015560;28;20410;-72
2021/10/23 09:58:21;;;;;;;30.48;23.45;;;10.00;95.00;;;;;;5034292;28;20172;-73
2021/10/23 10:00:49;;;;;;;26.80;20.30;;;10.10;95.00;;;;;;5033074;28;20036;-74
2021/10/23 10:03:16;;;;;;;29.67;21.17;;;10.10;94.90;;;;;;5027287;28;20025;-74
2021/10/23 10:05:42;;;;;;;22.25;17.08;;;10.20;94.80;;;;;;5023679;28;20025;-74
2021/10/23 10:08:09;;;;;;;24.02;18.15;;;10.20;94.70;;;;;;5029497;28;20374;-76
2021/10/23 10:10:40;;;;;;;28.20;22.30;;;10.20;94.50;;;;;;5028802;28;20092;-76
2021/10/23 10:13:14;;;;;;;23.83;18.38;;;10.30;94.50;;;;;;5011698;28;20041;-74
2021/10/23 10:15:56;;;;;;;20.60;15.48;;;10.30;94.40;;;;;;5028797;28;20009;-73
2021/10/23 10:18:23;;;;;;;12.02;7.90;;;10.40;94.50;;;;;;5026457;28;20124;-74
2021/10/23 10:20:51;;;;;;;25.00;18.85;;;10.50;94.20;;;;;;5009258;28;20048;-75
2021/10/23 10:23:29;;;;;;;20.52;16.70;;;10.70;94.40;;;;;;5031447;28;20033;-74
2021/10/23 10:26:13;;;;;;;14.82;11.00;;;;;;;;;;5024813;28;20170;-73
2021/10/23 10:29:09;;;;;;;16.27;12.43;;;11.20;93.00;;;;;;5029058;28;20025;-73
2021/10/23 10:42:58;;;;;;;15.80;11.38;;;11.80;93.00;;;;;;5011073;28;20168;-73
2021/10/23 10:45:36;;;;;;;17.60;12.45;;;12.10;93.00;;;;;;5032719;28;20017;-73
2021/10/23 10:48:07;;;;;;;17.60;14.23;;;12.50;92.10;;;;;;5032784;28;20147;-74
2021/10/23 10:50:44;;;;;;;9.68;6.80;;;12.60;91.80;;;;;;5032480;28;20022;-73
2021/10/23 10:53:22;;;;;;;17.13;11.93;;;12.90;91.20;;;;;;5033243;28;20025;-73
2021/10/23 10:55:58;;;;;;;21.50;14.68;;;13.50;90.80;;;;;;5036200;28;20464;-72
2021/10/23 10:58:53;;;;;;;7.97;4.80;;;14.00;90.30;;;;;;5037231;28;20033;-72
2021/10/23 11:01:24;;;;;;;12.80;9.82;;;14.10;86.60;;;;;;5033718;28;20048;-73
2021/10/23 11:04:01;;;;;;;15.68;11.20;;;14.00;86.70;;;;;;5032468;28;20057;-74
2021/10/23 11:09:11;;;;;;;13.07;9.07;;;14.00;87.60;;;;;;5032522;28;20041;-74
2021/10/23 11:11:42;;;;;;;15.70;11.43;;;14.10;88.30;;;;;;5017453;28;20025;-74
2021/10/23 11:14:09;;;;;;;21.25;14.27;;;14.10;87.30;;;;;;5012738;28;20060;-74
2021/10/23 11:16:37;;;;;;;13.15;7.90;;;14.20;86.00;;;;;;5032174;28;20025;-73
2021/10/23 11:19:03;;;;;;;20.25;14.02;;;14.20;85.90;;;;;;5014301;28;20033;-73
2021/10/23 11:21:31;;;;;;;19.40;13.45;;;14.20;85.40;;;;;;5032047;28;20021;-72
2021/10/23 11:23:56;;;;;;;11.70;8.27;;;14.20;85.50;;;;;;5014364;28;20025;-73
2021/10/23 11:26:22;;;;;;;14.82;11.38;;;14.20;85.90;;;;;;5032501;28;20101;-73
2021/10/23 11:28:48;;;;;;;20.63;13.02;;;14.10;86.50;;;;;;5032096;28;20037;-73
2021/10/23 11:31:21;;;;;;;16.08;13.07;;;14.20;86.80;;;;;;5014519;28;20025;-73
2021/10/23 11:33:46;;;;;;;17.13;12.45;;;14.10;86.50;;;;;;5014011;28;20121;-73
2021/10/23 11:36:19;;;;;;;10.05;6.53;;;14.00;86.60;;;;;;5031886;28;20127;-73
2021/10/23 11:38:52;;;;;;;9.00;4.65;;;14.00;87.30;;;;;;5013864;28;20054;-73
2021/10/23 11:41:24;;;;;;;18.77;12.15;;;13.90;87.70;;;;;;5032369;28;20179;-73
2021/10/23 11:43:52;;;;;;;15.10;10.70;;;13.90;87.60;;;;;;5032504;28;20220;-73
2021/10/23 11:46:18;;;;;;;10.52;6.07;;;13.90;86.80;;;;;;5014666;28;20028;-74
2021/10/23 11:48:59;;;;;;;18.38;11.23;;;13.90;87.30;;;;;;5032315;28;20026;-73
2021/10/23 11:51:25;;;;;;;10.60;5.88;;;13.80;87.50;;;;;;5031724;28;20406;-74
2021/10/23 11:54:00;;;;;;;10.93;7.47;;;13.80;87.70;;;;;;5013723;28;20035;-74
2021/10/23 11:56:26;;;;;;;16.48;10.02;;;13.80;87.50;;;;;;5014226;28;20506;-73
2021/10/23 11:58:54;;;;;;;9.35;6.20;;;13.80;87.00;;;;;;5031421;28;20041;-72
2021/10/23 12:01:21;;;;;;;10.00;6.22;;;13.80;88.00;;;;;;5032091;28;20022;-73
2021/10/23 12:03:50;;;;;;;14.15;8.63;;;13.80;88.10;;;;;;5031684;28;20030;-73
2021/10/23 12:06:27;;;;;;;18.87;11.37;;;13.90;87.10;;;;;;5031767;28;20060;-74
2021/10/23 12:09:14;;;;;;;11.85;6.05;;;13.70;85.80;;;;;;5031568;28;20109;-73
2021/10/23 12:11:40;;;;;;;14.77;8.18;;;13.60;87.70;;;;;;5013825;28;20014;-73
2021/10/23 12:14:11;;;;;;;21.38;12.32;;;13.60;87.40;;;;;;5013614;28;20052;-74
2021/10/23 12:16:50;;;;;;;23.58;15.13;;;13.60;87.20;;;;;;5031807;28;20026;-74
2021/10/23 12:19:39;;;;;;;14.07;8.70;;;13.60;85.70;;;;;;5031882;28;20033;-72
2021/10/23 12:22:04;;;;;;;13.30;7.03;;;13.60;87.00;;;;;;5013806;28;20067;-73
2021/10/23 12:24:32;;;;;;;16.98;11.50;;;13.70;87.60;;;;;;5034161;28;20026;-73
2021/10/23 12:27:27;;;;;;;19.98;11.98;;;13.70;87.60;;;;;;5035631;28;20092;-72
2021/10/23 12:30:06;;;;;;;21.08;13.88;;;13.70;87.20;;;;;;5035363;28;20224;-73
2021/10/23 12:32:43;;;;;;;20.13;14.40;;;13.70;86.50;;;;;;5035120;28;20028;-73
2021/10/23 12:35:30;;;;;;;20.35;13.32;;;13.70;85.60;;;;;;5035446;28;20343;-74
2021/10/23 12:37:58;;;;;;;13.07;8.02;;;13.70;85.90;;;;;;5035452;28;20467;-71
2021/10/23 12:40:32;;;;;;;16.27;10.68;;;13.70;87.40;;;;;;5035719;28;20084;-72
2021/10/23 12:43:09;;;;;;;16.55;11.27;;;13.70;87.50;;;;;;5036362;28;20032;-73
2021/10/23 12:45:49;;;;;;;17.65;8.90;;;13.70;87.00;;;;;;5037175;28;20494;-73
2021/10/23 12:48:19;;;;;;;17.02;11.10;;;13.60;87.90;;;;;;5053232;28;20021;-72
2021/10/23 12:50:47;;;;;;;21.08;15.18;;;13.60;87.40;;;;;;5057014;28;20107;-73
2021/10/23 12:53:13;;;;;;;19.40;10.02;;;13.60;87.70;;;;;;5055050;28;20021;-74
2021/10/23 12:55:40;;;;;;;19.38;12.75;;;13.60;88.00;;;;;;5054665;28;20050;-74